sensor_id;sensor_type;location;lat;lon;timestamp;P1;durP1;ratioP1;P2;durP2;ratioP2
63499;SDS011;49654;51.142;14.924;2023-03-03T00:00:08;96.10;;;49.20;;
63499;SDS011;49654;51.142;14.924;2023-03-03T00:02:36;97.43;;;48.33;;
63499;SDS011;49654;51.142;14.924;2023-03-03T00:05:04;90.23;;;46.33;;
63499;SDS011;49654;51.142;14.924;2023-03-03T00:07:32;106.67;;;52.17;;
63499;SDS011;49654;51.142;14.924;2023-03-03T00:09:59;125.67;;;49.37;;
63499;SDS011;49654;51.142;14.924;2023-03-03T00:12:27;103.97;;;51.43;;
63499;SDS011;49654;51.142;14.924;2023-03-03T00:14:55;102.67;;;49.93;;
63499;SDS011;49654;51.142;14.924;2023-03-03T00:17:23;107.03;;;50.13;;
63499;SDS011;49654;51.142;14.924;2023-03-03T00:19:51;107.77;;;50.37;;
63499;SDS011;49654;51.142;14.924;2023-03-03T00:22:24;144.13;;;47.47;;
63499;SDS011;49654;51.142;14.924;2023-03-03T00:24:54;125.80;;;49.60;;
63499;SDS011;49654;51.142;14.924;2023-03-03T00:27:26;95.27;;;45.20;;
63499;SDS011;49654;51.142;14.924;2023-03-03T00:29:55;138.10;;;46.87;;
63499;SDS011;49654;51.142;14.924;2023-03-03T00:32:25;144.37;;;45.50;;
63499;SDS011;49654;51.142;14.924;2023-03-03T00:34:54;134.93;;;46.17;;
63499;SDS011;49654;51.142;14.924;2023-03-03T00:37:28;99.23;;;46.40;;
63499;SDS011;49654;51.142;14.924;2023-03-03T00:40:15;167.40;;;48.10;;
63499;SDS011;49654;51.142;14.924;2023-03-03T00:42:49;104.77;;;48.27;;
63499;SDS011;49654;51.142;14.924;2023-03-03T00:45:22;102.07;;;47.70;;
63499;SDS011;49654;51.142;14.924;2023-03-03T00:47:52;118.37;;;48.73;;
63499;SDS011;49654;51.142;14.924;2023-03-03T00:50:24;104.03;;;47.50;;
63499;SDS011;49654;51.142;14.924;2023-03-03T00:53:02;123.00;;;51.70;;
63499;SDS011;49654;51.142;14.924;2023-03-03T00:55:32;110.60;;;49.13;;
63499;SDS011;49654;51.142;14.924;2023-03-03T00:58:00;112.50;;;50.43;;
63499;SDS011;49654;51.142;14.924;2023-03-03T01:00:27;108.43;;;50.80;;
63499;SDS011;49654;51.142;14.924;2023-03-03T01:02:55;174.43;;;54.57;;
63499;SDS011;49654;51.142;14.924;2023-03-03T01:05:22;103.63;;;48.43;;
63499;SDS011;49654;51.142;14.924;2023-03-03T01:07:49;98.67;;;48.83;;
63499;SDS011;49654;51.142;14.924;2023-03-03T01:10:17;95.77;;;47.80;;
63499;SDS011;49654;51.142;14.924;2023-03-03T01:15:13;132.13;;;49.13;;
63499;SDS011;49654;51.142;14.924;2023-03-03T01:17:40;97.67;;;44.77;;
63499;SDS011;49654;51.142;14.924;2023-03-03T01:20:09;96.50;;;46.87;;
63499;SDS011;49654;51.142;14.924;2023-03-03T01:22:37;91.90;;;45.27;;
63499;SDS011;49654;51.142;14.924;2023-03-03T01:25:04;87.23;;;43.80;;
63499;SDS011;49654;51.142;14.924;2023-03-03T01:27:33;77.77;;;41.37;;
63499;SDS011;49654;51.142;14.924;2023-03-03T01:30:01;81.13;;;42.47;;
63499;SDS011;49654;51.142;14.924;2023-03-03T01:32:28;78.37;;;42.00;;
63499;SDS011;49654;51.142;14.924;2023-03-03T01:34:55;92.33;;;42.60;;
63499;SDS011;49654;51.142;14.924;2023-03-03T01:37:22;77.40;;;41.17;;
63499;SDS011;49654;51.142;14.924;2023-03-03T01:39:50;76.40;;;41.27;;
63499;SDS011;49654;51.142;14.924;2023-03-03T01:42:18;73.57;;;40.97;;
63499;SDS011;49654;51.142;14.924;2023-03-03T01:44:46;79.90;;;42.83;;
63499;SDS011;49654;51.142;14.924;2023-03-03T01:47:14;78.60;;;42.63;;
63499;SDS011;49654;51.142;14.924;2023-03-03T01:49:43;80.30;;;42.50;;
63499;SDS011;49654;51.142;14.924;2023-03-03T01:52:18;79.40;;;41.10;;
63499;SDS011;49654;51.142;14.924;2023-03-03T01:54:52;145.37;;;46.30;;
63499;SDS011;49654;51.142;14.924;2023-03-03T01:57:22;82.07;;;43.73;;
63499;SDS011;49654;51.142;14.924;2023-03-03T01:59:56;116.00;;;45.50;;
63499;SDS011;49654;51.142;14.924;2023-03-03T02:02:24;83.30;;;43.77;;
63499;SDS011;49654;51.142;14.924;2023-03-03T02:04:54;84.77;;;45.47;;
63499;SDS011;49654;51.142;14.924;2023-03-03T02:07:21;86.63;;;43.13;;
63499;SDS011;49654;51.142;14.924;2023-03-03T02:09:52;86.93;;;43.50;;
63499;SDS011;49654;51.142;14.924;2023-03-03T02:12:25;85.40;;;43.10;;
63499;SDS011;49654;51.142;14.924;2023-03-03T02:14:58;85.87;;;42.43;;
63499;SDS011;49654;51.142;14.924;2023-03-03T02:17:25;74.73;;;41.53;;
63499;SDS011;49654;51.142;14.924;2023-03-03T02:19:53;73.63;;;40.73;;
63499;SDS011;49654;51.142;14.924;2023-03-03T02:22:30;77.93;;;41.87;;
63499;SDS011;49654;51.142;14.924;2023-03-03T02:25:05;83.40;;;41.17;;
63499;SDS011;49654;51.142;14.924;2023-03-03T02:27:38;79.77;;;41.43;;
63499;SDS011;49654;51.142;14.924;2023-03-03T02:30:09;80.87;;;44.00;;
63499;SDS011;49654;51.142;14.924;2023-03-03T02:32:39;81.67;;;43.17;;
63499;SDS011;49654;51.142;14.924;2023-03-03T02:37:56;88.10;;;43.90;;
63499;SDS011;49654;51.142;14.924;2023-03-03T02:40:30;81.27;;;42.63;;
63499;SDS011;49654;51.142;14.924;2023-03-03T02:43:03;80.27;;;41.90;;
63499;SDS011;49654;51.142;14.924;2023-03-03T02:45:32;86.77;;;43.53;;
63499;SDS011;49654;51.142;14.924;2023-03-03T02:47:58;87.67;;;43.50;;
63499;SDS011;49654;51.142;14.924;2023-03-03T02:50:25;88.50;;;43.77;;
63499;SDS011;49654;51.142;14.924;2023-03-03T02:52:52;79.70;;;42.77;;
63499;SDS011;49654;51.142;14.924;2023-03-03T02:55:19;82.10;;;43.33;;
63499;SDS011;49654;51.142;14.924;2023-03-03T02:57:46;94.27;;;43.60;;
63499;SDS011;49654;51.142;14.924;2023-03-03T03:02:43;87.70;;;44.60;;
63499;SDS011;49654;51.142;14.924;2023-03-03T03:05:10;89.83;;;43.80;;
63499;SDS011;49654;51.142;14.924;2023-03-03T03:07:36;124.70;;;44.30;;
63499;SDS011;49654;51.142;14.924;2023-03-03T03:10:04;80.20;;;42.03;;
63499;SDS011;49654;51.142;14.924;2023-03-03T03:12:31;79.33;;;43.40;;
63499;SDS011;49654;51.142;14.924;2023-03-03T03:14:58;82.97;;;42.97;;
63499;SDS011;49654;51.142;14.924;2023-03-03T03:17:26;82.13;;;41.70;;
63499;SDS011;49654;51.142;14.924;2023-03-03T03:19:53;85.30;;;44.83;;
63499;SDS011;49654;51.142;14.924;2023-03-03T03:22:20;85.60;;;43.37;;
63499;SDS011;49654;51.142;14.924;2023-03-03T03:24:47;87.07;;;43.63;;
63499;SDS011;49654;51.142;14.924;2023-03-03T03:27:14;87.63;;;44.37;;
63499;SDS011;49654;51.142;14.924;2023-03-03T03:29:41;90.37;;;42.10;;
63499;SDS011;49654;51.142;14.924;2023-03-03T03:32:07;81.40;;;40.87;;
63499;SDS011;49654;51.142;14.924;2023-03-03T03:34:36;86.93;;;41.50;;
63499;SDS011;49654;51.142;14.924;2023-03-03T03:37:03;91.17;;;42.20;;
63499;SDS011;49654;51.142;14.924;2023-03-03T03:39:29;93.77;;;42.67;;
63499;SDS011;49654;51.142;14.924;2023-03-03T03:41:56;86.83;;;42.63;;
63499;SDS011;49654;51.142;14.924;2023-03-03T03:44:23;86.60;;;40.40;;
63499;SDS011;49654;51.142;14.924;2023-03-03T03:46:50;91.30;;;41.20;;
63499;SDS011;49654;51.142;14.924;2023-03-03T03:49:17;84.77;;;41.10;;
63499;SDS011;49654;51.142;14.924;2023-03-03T03:51:45;79.90;;;40.33;;
63499;SDS011;49654;51.142;14.924;2023-03-03T03:54:12;85.17;;;42.33;;
63499;SDS011;49654;51.142;14.924;2023-03-03T03:56:39;98.60;;;42.00;;
63499;SDS011;49654;51.142;14.924;2023-03-03T03:59:06;95.47;;;42.20;;
63499;SDS011;49654;51.142;14.924;2023-03-03T04:01:33;91.60;;;40.57;;
63499;SDS011;49654;51.142;14.924;2023-03-03T04:04:00;84.17;;;40.17;;
63499;SDS011;49654;51.142;14.924;2023-03-03T04:06:28;90.53;;;41.57;;
63499;SDS011;49654;51.142;14.924;2023-03-03T04:08:56;92.80;;;41.47;;
63499;SDS011;49654;51.142;14.924;2023-03-03T04:11:23;90.23;;;40.23;;
63499;SDS011;49654;51.142;14.924;2023-03-03T04:13:50;88.93;;;40.37;;
63499;SDS011;49654;51.142;14.924;2023-03-03T04:16:17;96.80;;;42.27;;
63499;SDS011;49654;51.142;14.924;2023-03-03T04:18:44;88.57;;;39.00;;
63499;SDS011;49654;51.142;14.924;2023-03-03T04:21:15;84.53;;;36.50;;
63499;SDS011;49654;51.142;14.924;2023-03-03T04:23:42;83.37;;;35.13;;
63499;SDS011;49654;51.142;14.924;2023-03-03T04:26:10;73.47;;;32.80;;
63499;SDS011;49654;51.142;14.924;2023-03-03T04:28:37;73.23;;;32.07;;
63499;SDS011;49654;51.142;14.924;2023-03-03T04:31:04;71.43;;;32.50;;
63499;SDS011;49654;51.142;14.924;2023-03-03T04:33:31;70.77;;;32.57;;
63499;SDS011;49654;51.142;14.924;2023-03-03T04:35:58;79.00;;;33.23;;
63499;SDS011;49654;51.142;14.924;2023-03-03T04:38:25;71.40;;;32.13;;
63499;SDS011;49654;51.142;14.924;2023-03-03T04:40:52;74.97;;;31.23;;
63499;SDS011;49654;51.142;14.924;2023-03-03T04:43:20;71.13;;;31.60;;
63499;SDS011;49654;51.142;14.924;2023-03-03T04:45:47;70.30;;;29.73;;
63499;SDS011;49654;51.142;14.924;2023-03-03T04:48:14;68.43;;;30.40;;
63499;SDS011;49654;51.142;14.924;2023-03-03T04:50:41;74.40;;;30.60;;
63499;SDS011;49654;51.142;14.924;2023-03-03T04:53:08;66.47;;;29.27;;
63499;SDS011;49654;51.142;14.924;2023-03-03T04:55:35;63.03;;;28.13;;
63499;SDS011;49654;51.142;14.924;2023-03-03T04:58:02;61.17;;;26.40;;
63499;SDS011;49654;51.142;14.924;2023-03-03T05:00:31;70.90;;;27.57;;
63499;SDS011;49654;51.142;14.924;2023-03-03T05:02:58;62.67;;;26.20;;
63499;SDS011;49654;51.142;14.924;2023-03-03T05:05:25;62.80;;;27.43;;
63499;SDS011;49654;51.142;14.924;2023-03-03T05:07:52;68.17;;;29.00;;
63499;SDS011;49654;51.142;14.924;2023-03-03T05:10:19;67.80;;;29.20;;
63499;SDS011;49654;51.142;14.924;2023-03-03T05:12:46;72.63;;;28.90;;
63499;SDS011;49654;51.142;14.924;2023-03-03T05:15:13;71.30;;;26.97;;
63499;SDS011;49654;51.142;14.924;2023-03-03T05:17:41;58.37;;;24.97;;
63499;SDS011;49654;51.142;14.924;2023-03-03T05:20:09;56.10;;;24.17;;
63499;SDS011;49654;51.142;14.924;2023-03-03T05:22:37;53.53;;;23.87;;
63499;SDS011;49654;51.142;14.924;2023-03-03T05:25:05;48.67;;;21.93;;
63499;SDS011;49654;51.142;14.924;2023-03-03T05:27:33;51.47;;;22.80;;
63499;SDS011;49654;51.142;14.924;2023-03-03T05:30:00;49.43;;;23.73;;
63499;SDS011;49654;51.142;14.924;2023-03-03T05:32:27;45.73;;;22.10;;
63499;SDS011;49654;51.142;14.924;2023-03-03T05:34:55;47.47;;;21.97;;
63499;SDS011;49654;51.142;14.924;2023-03-03T05:37:22;47.73;;;21.30;;
63499;SDS011;49654;51.142;14.924;2023-03-03T05:39:49;72.37;;;41.63;;
63499;SDS011;49654;51.142;14.924;2023-03-03T05:42:16;48.30;;;23.17;;
63499;SDS011;49654;51.142;14.924;2023-03-03T05:44:43;52.93;;;24.73;;
63499;SDS011;49654;51.142;14.924;2023-03-03T05:47:10;47.40;;;23.87;;
63499;SDS011;49654;51.142;14.924;2023-03-03T05:49:37;46.43;;;22.00;;
63499;SDS011;49654;51.142;14.924;2023-03-03T05:52:05;47.63;;;22.63;;
63499;SDS011;49654;51.142;14.924;2023-03-03T05:54:33;46.97;;;22.90;;
63499;SDS011;49654;51.142;14.924;2023-03-03T05:57:00;45.63;;;21.83;;
63499;SDS011;49654;51.142;14.924;2023-03-03T05:59:27;56.70;;;23.37;;
63499;SDS011;49654;51.142;14.924;2023-03-03T06:01:54;52.10;;;23.93;;
63499;SDS011;49654;51.142;14.924;2023-03-03T06:04:21;46.57;;;22.27;;
63499;SDS011;49654;51.142;14.924;2023-03-03T06:06:48;52.37;;;23.40;;
63499;SDS011;49654;51.142;14.924;2023-03-03T06:09:16;50.57;;;23.03;;
63499;SDS011;49654;51.142;14.924;2023-03-03T06:11:45;42.53;;;21.23;;
63499;SDS011;49654;51.142;14.924;2023-03-03T06:14:12;45.70;;;20.90;;
63499;SDS011;49654;51.142;14.924;2023-03-03T06:16:39;45.83;;;20.80;;
63499;SDS011;49654;51.142;14.924;2023-03-03T06:19:06;47.63;;;21.73;;
63499;SDS011;49654;51.142;14.924;2023-03-03T06:21:32;41.63;;;18.33;;
63499;SDS011;49654;51.142;14.924;2023-03-03T06:23:59;44.37;;;19.27;;
63499;SDS011;49654;51.142;14.924;2023-03-03T06:26:30;44.87;;;19.23;;
63499;SDS011;49654;51.142;14.924;2023-03-03T06:28:57;45.10;;;20.87;;
63499;SDS011;49654;51.142;14.924;2023-03-03T06:31:24;46.77;;;21.20;;
63499;SDS011;49654;51.142;14.924;2023-03-03T06:33:52;48.80;;;22.13;;
63499;SDS011;49654;51.142;14.924;2023-03-03T06:36:19;41.90;;;18.97;;
63499;SDS011;49654;51.142;14.924;2023-03-03T06:38:46;40.87;;;18.67;;
63499;SDS011;49654;51.142;14.924;2023-03-03T06:41:13;33.87;;;17.40;;
63499;SDS011;49654;51.142;14.924;2023-03-03T06:43:42;35.80;;;17.73;;
63499;SDS011;49654;51.142;14.924;2023-03-03T06:46:09;37.27;;;17.97;;
63499;SDS011;49654;51.142;14.924;2023-03-03T06:48:36;36.87;;;18.43;;
63499;SDS011;49654;51.142;14.924;2023-03-03T06:51:08;33.40;;;17.00;;
63499;SDS011;49654;51.142;14.924;2023-03-03T06:53:46;28.90;;;15.03;;
63499;SDS011;49654;51.142;14.924;2023-03-03T06:56:14;37.27;;;17.57;;
63499;SDS011;49654;51.142;14.924;2023-03-03T06:58:43;37.70;;;18.00;;
63499;SDS011;49654;51.142;14.924;2023-03-03T07:01:12;36.30;;;17.63;;
63499;SDS011;49654;51.142;14.924;2023-03-03T07:03:42;38.00;;;18.73;;
63499;SDS011;49654;51.142;14.924;2023-03-03T07:06:14;41.03;;;18.00;;
63499;SDS011;49654;51.142;14.924;2023-03-03T07:08:45;36.67;;;17.77;;
63499;SDS011;49654;51.142;14.924;2023-03-03T07:11:14;34.73;;;17.67;;
63499;SDS011;49654;51.142;14.924;2023-03-03T07:13:46;30.83;;;15.53;;
63499;SDS011;49654;51.142;14.924;2023-03-03T07:16:15;35.93;;;20.10;;
63499;SDS011;49654;51.142;14.924;2023-03-03T07:18:46;34.93;;;14.97;;
63499;SDS011;49654;51.142;14.924;2023-03-03T07:21:17;30.20;;;16.03;;
63499;SDS011;49654;51.142;14.924;2023-03-03T07:23:46;28.70;;;15.03;;
63499;SDS011;49654;51.142;14.924;2023-03-03T07:26:15;31.43;;;15.83;;
63499;SDS011;49654;51.142;14.924;2023-03-03T07:28:46;30.43;;;15.17;;
63499;SDS011;49654;51.142;14.924;2023-03-03T07:31:25;33.63;;;16.80;;
63499;SDS011;49654;51.142;14.924;2023-03-03T07:33:56;34.70;;;15.70;;
63499;SDS011;49654;51.142;14.924;2023-03-03T07:36:28;37.50;;;17.43;;
63499;SDS011;49654;51.142;14.924;2023-03-03T07:38:57;38.20;;;18.93;;
63499;SDS011;49654;51.142;14.924;2023-03-03T07:41:26;30.27;;;15.77;;
63499;SDS011;49654;51.142;14.924;2023-03-03T07:43:58;33.00;;;16.37;;
63499;SDS011;49654;51.142;14.924;2023-03-03T07:46:33;25.77;;;13.70;;
63499;SDS011;49654;51.142;14.924;2023-03-03T07:49:11;32.93;;;18.60;;
63499;SDS011;49654;51.142;14.924;2023-03-03T07:51:47;26.90;;;13.57;;
63499;SDS011;49654;51.142;14.924;2023-03-03T07:54:26;31.40;;;16.07;;
63499;SDS011;49654;51.142;14.924;2023-03-03T07:56:57;31.07;;;14.10;;
63499;SDS011;49654;51.142;14.924;2023-03-03T07:59:32;23.57;;;12.60;;
63499;SDS011;49654;51.142;14.924;2023-03-03T08:02:02;26.97;;;13.37;;
63499;SDS011;49654;51.142;14.924;2023-03-03T08:04:44;29.40;;;15.07;;
63499;SDS011;49654;51.142;14.924;2023-03-03T08:07:15;24.20;;;12.67;;
63499;SDS011;49654;51.142;14.924;2023-03-03T08:09:47;23.07;;;12.40;;
63499;SDS011;49654;51.142;14.924;2023-03-03T08:15:14;25.07;;;13.17;;
63499;SDS011;49654;51.142;14.924;2023-03-03T08:17:44;30.03;;;14.23;;
63499;SDS011;49654;51.142;14.924;2023-03-03T08:20:30;27.27;;;14.23;;
63499;SDS011;49654;51.142;14.924;2023-03-03T08:23:07;30.30;;;15.77;;
63499;SDS011;49654;51.142;14.924;2023-03-03T08:25:34;29.57;;;15.97;;
63499;SDS011;49654;51.142;14.924;2023-03-03T08:28:02;28.80;;;15.77;;
63499;SDS011;49654;51.142;14.924;2023-03-03T08:30:30;23.47;;;13.07;;
63499;SDS011;49654;51.142;14.924;2023-03-03T08:32:57;33.53;;;17.90;;
63499;SDS011;49654;51.142;14.924;2023-03-03T08:35:25;23.60;;;13.13;;
63499;SDS011;49654;51.142;14.924;2023-03-03T08:37:53;30.17;;;17.67;;
63499;SDS011;49654;51.142;14.924;2023-03-03T08:40:20;24.97;;;14.53;;
63499;SDS011;49654;51.142;14.924;2023-03-03T08:42:47;22.77;;;13.30;;
63499;SDS011;49654;51.142;14.924;2023-03-03T08:45:14;23.57;;;13.37;;
63499;SDS011;49654;51.142;14.924;2023-03-03T08:47:43;26.53;;;14.37;;
63499;SDS011;49654;51.142;14.924;2023-03-03T08:50:10;65.27;;;29.17;;
63499;SDS011;49654;51.142;14.924;2023-03-03T08:52:37;345.27;;;164.57;;
63499;SDS011;49654;51.142;14.924;2023-03-03T08:55:05;76.27;;;41.97;;
63499;SDS011;49654;51.142;14.924;2023-03-03T08:57:32;74.87;;;40.77;;
63499;SDS011;49654;51.142;14.924;2023-03-03T08:59:59;30.77;;;16.87;;
63499;SDS011;49654;51.142;14.924;2023-03-03T09:02:26;30.13;;;16.10;;
63499;SDS011;49654;51.142;14.924;2023-03-03T09:04:54;26.37;;;14.30;;
63499;SDS011;49654;51.142;14.924;2023-03-03T09:07:21;28.13;;;15.33;;
63499;SDS011;49654;51.142;14.924;2023-03-03T09:09:48;26.37;;;14.87;;
63499;SDS011;49654;51.142;14.924;2023-03-03T09:12:16;25.63;;;14.03;;
63499;SDS011;49654;51.142;14.924;2023-03-03T09:14:44;27.50;;;14.90;;
63499;SDS011;49654;51.142;14.924;2023-03-03T09:17:18;27.10;;;15.63;;
63499;SDS011;49654;51.142;14.924;2023-03-03T09:19:51;24.03;;;13.03;;
63499;SDS011;49654;51.142;14.924;2023-03-03T09:22:20;27.40;;;15.40;;
63499;SDS011;49654;51.142;14.924;2023-03-03T09:24:49;28.93;;;16.43;;
63499;SDS011;49654;51.142;14.924;2023-03-03T09:27:20;28.53;;;15.70;;
63499;SDS011;49654;51.142;14.924;2023-03-03T09:29:53;25.57;;;14.90;;
63499;SDS011;49654;51.142;14.924;2023-03-03T09:32:22;26.97;;;15.83;;
63499;SDS011;49654;51.142;14.924;2023-03-03T09:34:55;26.20;;;15.80;;
63499;SDS011;49654;51.142;14.924;2023-03-03T09:37:25;32.57;;;17.87;;
63499;SDS011;49654;51.142;14.924;2023-03-03T09:39:54;33.50;;;19.10;;
63499;SDS011;49654;51.142;14.924;2023-03-03T09:42:32;35.00;;;19.20;;
63499;SDS011;49654;51.142;14.924;2023-03-03T09:48:06;29.17;;;17.03;;
63499;SDS011;49654;51.142;14.924;2023-03-03T09:50:53;31.07;;;17.20;;
63499;SDS011;49654;51.142;14.924;2023-03-03T09:53:37;27.70;;;15.70;;
63499;SDS011;49654;51.142;14.924;2023-03-03T09:56:12;29.20;;;16.67;;
63499;SDS011;49654;51.142;14.924;2023-03-03T09:58:52;28.87;;;16.53;;
63499;SDS011;49654;51.142;14.924;2023-03-03T10:01:30;29.70;;;16.77;;
63499;SDS011;49654;51.142;14.924;2023-03-03T10:04:11;27.67;;;15.83;;
63499;SDS011;49654;51.142;14.924;2023-03-03T10:06:48;27.13;;;15.23;;
63499;SDS011;49654;51.142;14.924;2023-03-03T10:09:34;27.80;;;16.40;;
63499;SDS011;49654;51.142;14.924;2023-03-03T10:12:10;24.43;;;14.60;;
63499;SDS011;49654;51.142;14.924;2023-03-03T10:14:50;23.03;;;14.83;;
63499;SDS011;49654;51.142;14.924;2023-03-03T10:17:35;30.27;;;16.67;;
63499;SDS011;49654;51.142;14.924;2023-03-03T10:23:06;28.87;;;16.53;;
63499;SDS011;49654;51.142;14.924;2023-03-03T10:25:49;26.63;;;15.80;;
63499;SDS011;49654;51.142;14.924;2023-03-03T10:28:29;25.97;;;15.93;;
63499;SDS011;49654;51.142;14.924;2023-03-03T10:31:13;26.63;;;15.83;;
63499;SDS011;49654;51.142;14.924;2023-03-03T10:33:51;27.13;;;16.20;;
63499;SDS011;49654;51.142;14.924;2023-03-03T10:36:33;27.20;;;17.07;;
63499;SDS011;49654;51.142;14.924;2023-03-03T10:39:14;28.40;;;16.77;;
63499;SDS011;49654;51.142;14.924;2023-03-03T10:41:55;29.97;;;16.87;;
63499;SDS011;49654;51.142;14.924;2023-03-03T10:44:35;32.77;;;20.53;;
63499;SDS011;49654;51.142;14.924;2023-03-03T10:47:22;27.23;;;17.03;;
63499;SDS011;49654;51.142;14.924;2023-03-03T10:50:02;37.67;;;22.33;;
63499;SDS011;49654;51.142;14.924;2023-03-03T10:52:41;33.97;;;18.63;;
63499;SDS011;49654;51.142;14.924;2023-03-03T10:55:17;38.43;;;20.33;;
63499;SDS011;49654;51.142;14.924;2023-03-03T10:58:01;29.37;;;17.03;;
63499;SDS011;49654;51.142;14.924;2023-03-03T11:00:46;27.93;;;16.20;;
63499;SDS011;49654;51.142;14.924;2023-03-03T11:03:26;31.37;;;18.30;;
63499;SDS011;49654;51.142;14.924;2023-03-03T11:06:07;31.87;;;18.37;;
63499;SDS011;49654;51.142;14.924;2023-03-03T11:08:39;29.20;;;16.23;;
63499;SDS011;49654;51.142;14.924;2023-03-03T11:11:11;30.77;;;18.93;;
63499;SDS011;49654;51.142;14.924;2023-03-03T11:13:46;29.40;;;16.57;;
63499;SDS011;49654;51.142;14.924;2023-03-03T11:16:25;27.97;;;16.17;;
63499;SDS011;49654;51.142;14.924;2023-03-03T11:19:10;28.50;;;17.17;;
63499;SDS011;49654;51.142;14.924;2023-03-03T11:21:50;29.07;;;16.60;;
63499;SDS011;49654;51.142;14.924;2023-03-03T11:24:30;32.60;;;18.07;;
63499;SDS011;49654;51.142;14.924;2023-03-03T11:27:18;33.33;;;18.13;;
63499;SDS011;49654;51.142;14.924;2023-03-03T11:30:05;33.70;;;18.27;;
63499;SDS011;49654;51.142;14.924;2023-03-03T11:32:45;29.43;;;16.90;;
63499;SDS011;49654;51.142;14.924;2023-03-03T11:35:18;40.37;;;19.53;;
63499;SDS011;49654;51.142;14.924;2023-03-03T11:37:54;36.27;;;18.20;;
63499;SDS011;49654;51.142;14.924;2023-03-03T11:40:26;36.70;;;19.03;;
63499;SDS011;49654;51.142;14.924;2023-03-03T11:43:00;36.93;;;19.77;;
63499;SDS011;49654;51.142;14.924;2023-03-03T11:45:38;35.77;;;18.80;;
63499;SDS011;49654;51.142;14.924;2023-03-03T11:48:11;39.80;;;20.60;;
63499;SDS011;49654;51.142;14.924;2023-03-03T11:50:45;43.70;;;20.67;;
63499;SDS011;49654;51.142;14.924;2023-03-03T11:53:26;47.10;;;21.57;;
63499;SDS011;49654;51.142;14.924;2023-03-03T11:56:05;42.40;;;20.67;;
63499;SDS011;49654;51.142;14.924;2023-03-03T11:58:43;42.90;;;19.97;;
63499;SDS011;49654;51.142;14.924;2023-03-03T12:01:16;44.97;;;19.90;;
63499;SDS011;49654;51.142;14.924;2023-03-03T12:03:49;39.97;;;19.33;;
63499;SDS011;49654;51.142;14.924;2023-03-03T12:06:23;42.80;;;19.43;;
63499;SDS011;49654;51.142;14.924;2023-03-03T12:09:02;41.17;;;19.30;;
63499;SDS011;49654;51.142;14.924;2023-03-03T12:11:40;41.17;;;20.03;;
63499;SDS011;49654;51.142;14.924;2023-03-03T12:14:16;38.70;;;19.80;;
63499;SDS011;49654;51.142;14.924;2023-03-03T12:16:55;38.13;;;18.03;;
63499;SDS011;49654;51.142;14.924;2023-03-03T12:19:33;33.53;;;17.20;;
63499;SDS011;49654;51.142;14.924;2023-03-03T12:22:07;34.30;;;17.97;;
63499;SDS011;49654;51.142;14.924;2023-03-03T12:24:55;31.67;;;16.07;;
63499;SDS011;49654;51.142;14.924;2023-03-03T12:27:34;27.13;;;15.10;;
63499;SDS011;49654;51.142;14.924;2023-03-03T12:30:11;34.83;;;16.57;;
63499;SDS011;49654;51.142;14.924;2023-03-03T12:32:50;37.13;;;19.10;;
63499;SDS011;49654;51.142;14.924;2023-03-03T12:35:30;32.27;;;17.53;;
63499;SDS011;49654;51.142;14.924;2023-03-03T12:38:06;36.13;;;18.87;;
63499;SDS011;49654;51.142;14.924;2023-03-03T12:40:38;37.33;;;18.37;;
63499;SDS011;49654;51.142;14.924;2023-03-03T12:43:15;38.93;;;18.83;;
63499;SDS011;49654;51.142;14.924;2023-03-03T12:45:52;35.67;;;18.23;;
63499;SDS011;49654;51.142;14.924;2023-03-03T12:48:27;33.57;;;17.93;;
63499;SDS011;49654;51.142;14.924;2023-03-03T12:51:03;32.83;;;19.10;;
63499;SDS011;49654;51.142;14.924;2023-03-03T12:53:44;30.53;;;17.60;;
63499;SDS011;49654;51.142;14.924;2023-03-03T12:56:25;27.37;;;16.57;;
63499;SDS011;49654;51.142;14.924;2023-03-03T12:59:02;29.57;;;17.23;;
63499;SDS011;49654;51.142;14.924;2023-03-03T13:01:39;34.13;;;19.40;;
63499;SDS011;49654;51.142;14.924;2023-03-03T13:04:18;28.10;;;16.30;;
63499;SDS011;49654;51.142;14.924;2023-03-03T13:07:03;24.43;;;15.87;;
63499;SDS011;49654;51.142;14.924;2023-03-03T13:09:41;26.43;;;16.13;;
63499;SDS011;49654;51.142;14.924;2023-03-03T13:12:29;27.37;;;15.93;;
63499;SDS011;49654;51.142;14.924;2023-03-03T13:15:02;31.90;;;21.20;;
63499;SDS011;49654;51.142;14.924;2023-03-03T13:17:37;28.57;;;18.40;;
63499;SDS011;49654;51.142;14.924;2023-03-03T13:20:18;30.70;;;16.80;;
63499;SDS011;49654;51.142;14.924;2023-03-03T13:22:51;24.03;;;14.73;;
63499;SDS011;49654;51.142;14.924;2023-03-03T13:25:30;25.80;;;16.10;;
63499;SDS011;49654;51.142;14.924;2023-03-03T13:28:10;27.17;;;16.53;;
63499;SDS011;49654;51.142;14.924;2023-03-03T13:30:46;82.23;;;41.60;;
63499;SDS011;49654;51.142;14.924;2023-03-03T13:33:15;21.80;;;13.90;;
63499;SDS011;49654;51.142;14.924;2023-03-03T13:35:53;28.07;;;17.87;;
63499;SDS011;49654;51.142;14.924;2023-03-03T13:38:23;30.23;;;21.07;;
63499;SDS011;49654;51.142;14.924;2023-03-03T13:40:56;25.63;;;16.13;;
63499;SDS011;49654;51.142;14.924;2023-03-03T13:43:30;24.90;;;16.27;;
63499;SDS011;49654;51.142;14.924;2023-03-03T13:46:07;22.60;;;15.10;;
63499;SDS011;49654;51.142;14.924;2023-03-03T13:48:43;25.10;;;16.10;;
63499;SDS011;49654;51.142;14.924;2023-03-03T13:51:42;21.77;;;14.50;;
63499;SDS011;49654;51.142;14.924;2023-03-03T13:54:20;22.90;;;14.13;;
63499;SDS011;49654;51.142;14.924;2023-03-03T13:57:16;23.73;;;15.23;;
63499;SDS011;49654;51.142;14.924;2023-03-03T13:59:53;21.40;;;13.23;;
63499;SDS011;49654;51.142;14.924;2023-03-03T14:02:51;20.00;;;13.43;;
63499;SDS011;49654;51.142;14.924;2023-03-03T14:05:29;21.33;;;13.63;;
63499;SDS011;49654;51.142;14.924;2023-03-03T14:08:06;27.07;;;17.10;;
63499;SDS011;49654;51.142;14.924;2023-03-03T14:10:39;27.43;;;17.13;;
63499;SDS011;49654;51.142;14.924;2023-03-03T14:13:10;17.50;;;12.03;;
63499;SDS011;49654;51.142;14.924;2023-03-03T14:15:41;21.63;;;13.43;;
63499;SDS011;49654;51.142;14.924;2023-03-03T14:18:17;17.20;;;11.30;;
63499;SDS011;49654;51.142;14.924;2023-03-03T14:20:50;20.60;;;12.27;;
63499;SDS011;49654;51.142;14.924;2023-03-03T14:23:20;17.93;;;11.20;;
63499;SDS011;49654;51.142;14.924;2023-03-03T14:25:55;17.27;;;10.00;;
63499;SDS011;49654;51.142;14.924;2023-03-03T14:28:24;18.80;;;11.90;;
63499;SDS011;49654;51.142;14.924;2023-03-03T14:30:52;16.03;;;10.87;;
63499;SDS011;49654;51.142;14.924;2023-03-03T14:33:27;17.77;;;11.17;;
63499;SDS011;49654;51.142;14.924;2023-03-03T14:38:51;15.67;;;10.03;;
63499;SDS011;49654;51.142;14.924;2023-03-03T14:41:20;14.50;;;9.93;;
63499;SDS011;49654;51.142;14.924;2023-03-03T14:44:00;14.20;;;9.53;;
63499;SDS011;49654;51.142;14.924;2023-03-03T14:46:32;15.67;;;9.93;;
63499;SDS011;49654;51.142;14.924;2023-03-03T14:49:02;17.20;;;10.47;;
63499;SDS011;49654;51.142;14.924;2023-03-03T14:51:33;17.33;;;11.27;;
63499;SDS011;49654;51.142;14.924;2023-03-03T14:54:10;20.17;;;12.47;;